createdAt,value
2023-04-24T00:01:21.600Z,12.50
2023-04-24T00:03:49.358Z,11.82
2023-04-24T00:06:18.930Z,12.45
2023-04-24T00:11:38.739Z,11.52
2023-04-24T00:14:06.280Z,13.32
2023-04-24T00:16:33.840Z,11.32
2023-04-24T00:19:01.883Z,10.80
2023-04-24T00:21:30.992Z,10.65
2023-04-24T00:23:58.440Z,11.95
2023-04-24T00:26:26.442Z,11.75
2023-04-24T00:28:53.959Z,11.38
2023-04-24T00:31:21.561Z,11.25
2023-04-24T00:33:49.096Z,12.60
2023-04-24T00:36:16.636Z,11.57
2023-04-24T00:38:45.922Z,11.30
2023-04-24T00:41:13.868Z,10.50
2023-04-24T00:43:41.566Z,12.80
2023-04-24T00:46:09.344Z,11.90
2023-04-24T00:48:37.096Z,12.60
2023-04-24T00:51:04.971Z,10.50
2023-04-24T00:53:32.620Z,11.82
2023-04-24T00:56:01.918Z,10.70
2023-04-24T00:58:29.501Z,10.18
2023-04-24T01:00:58.589Z,9.82
2023-04-24T01:03:27.403Z,10.73
2023-04-24T01:05:56.517Z,10.25
2023-04-24T01:08:25.645Z,10.20
2023-04-24T01:10:53.881Z,11.50
2023-04-24T01:13:22.996Z,11.75
2023-04-24T01:15:50.869Z,9.95
2023-04-24T01:18:43.672Z,10.35
2023-04-24T01:21:14.325Z,10.60
2023-04-24T01:23:43.166Z,10.80
2023-04-24T01:26:10.780Z,10.57
2023-04-24T01:28:38.804Z,10.65
2023-04-24T01:31:06.414Z,9.52
2023-04-24T01:36:27.176Z,10.73
2023-04-24T01:38:56.238Z,12.20
2023-04-24T01:41:23.796Z,10.93
2023-04-24T01:43:51.650Z,11.75
2023-04-24T01:46:19.257Z,9.80
2023-04-24T01:48:47.065Z,11.27
2023-04-24T01:51:14.959Z,11.70
2023-04-24T01:53:42.436Z,12.23
2023-04-24T01:56:11.252Z,10.52
2023-04-24T02:07:18.712Z,10.80
2023-04-24T02:09:46.247Z,11.73
2023-04-24T02:12:39.337Z,11.38
2023-04-24T02:15:09.114Z,10.73
2023-04-24T02:17:37.340Z,10.55
2023-04-24T02:20:05.692Z,11.70
2023-04-24T02:22:33.184Z,11.30
2023-04-24T02:30:45.252Z,10.77
2023-04-24T02:33:13.090Z,10.55
2023-04-24T02:35:40.734Z,11.25
2023-04-24T02:38:08.235Z,10.30
2023-04-24T02:40:35.628Z,12.73
2023-04-24T02:45:55.776Z,12.07
2023-04-24T02:48:23.397Z,11.75
2023-04-24T02:50:51.496Z,11.32
2023-04-24T02:53:19.097Z,13.35
2023-04-24T02:55:47.042Z,12.85
2023-04-24T02:58:15.966Z,11.95
2023-04-24T03:00:44.443Z,12.88
2023-04-24T03:03:13.505Z,13.82
2023-04-24T03:05:41.551Z,11.52
2023-04-24T03:11:00.647Z,10.75
2023-04-24T03:13:28.348Z,11.90
2023-04-24T03:15:56.030Z,11.90
2023-04-24T03:18:24.971Z,10.68
2023-04-24T03:20:52.456Z,12.48
2023-04-24T03:23:19.973Z,11.50
2023-04-24T03:25:49.417Z,13.10
2023-04-24T03:28:17.061Z,13.38
2023-04-24T03:30:44.607Z,13.02
2023-04-24T03:33:12.192Z,12.45
2023-04-24T03:35:42.183Z,11.20
2023-04-24T03:38:09.784Z,11.98
2023-04-24T03:40:40.685Z,15.43
2023-04-24T03:43:08.160Z,12.00
2023-04-24T03:45:35.645Z,10.85
2023-04-24T03:48:03.334Z,14.07
2023-04-24T03:50:31.165Z,10.88
2023-04-24T03:53:00.022Z,10.63
2023-04-24T03:58:20.246Z,9.85
2023-04-24T04:00:49.055Z,9.63
2023-04-24T04:06:14.154Z,9.23
2023-04-24T04:08:43.147Z,9.38
2023-04-24T04:11:10.590Z,9.10
2023-04-24T04:16:31.190Z,9.15
2023-04-24T04:19:01.181Z,9.27
2023-04-24T04:21:28.995Z,9.50
2023-04-24T04:23:58.056Z,9.48
2023-04-24T04:26:26.643Z,8.93
2023-04-24T04:28:54.246Z,9.02
2023-04-24T04:31:22.089Z,8.85
2023-04-24T04:33:49.638Z,10.98
2023-04-24T04:36:18.274Z,9.57
2023-04-24T04:38:45.849Z,10.00
2023-04-24T04:41:14.695Z,10.00
2023-04-24T04:43:43.710Z,10.07
2023-04-24T04:46:12.311Z,10.60
2023-04-24T04:48:40.623Z,8.77
2023-04-24T04:51:08.188Z,8.65
2023-04-24T04:53:36.015Z,8.70
2023-04-24T04:56:03.525Z,8.38
2023-04-24T04:58:32.375Z,8.63
2023-04-24T05:01:00.250Z,8.90
2023-04-24T05:03:28.447Z,8.52
2023-04-24T05:05:56.011Z,7.18
2023-04-24T05:08:27.590Z,6.95
2023-04-24T05:10:55.888Z,6.28
2023-04-24T05:13:35.734Z,5.80
2023-04-24T05:18:59.884Z,5.30
2023-04-24T05:21:27.831Z,6.57
2023-04-24T05:23:55.298Z,7.28
2023-04-24T05:26:24.106Z,6.88
2023-04-24T05:28:52.358Z,5.82
2023-04-24T05:31:26.160Z,6.05
2023-04-24T05:33:57.242Z,5.40
2023-04-24T05:36:24.885Z,5.60
2023-04-24T05:38:52.760Z,6.95
2023-04-24T05:41:20.610Z,5.82
2023-04-24T05:43:52.325Z,5.70
2023-04-24T05:52:10.036Z,5.40
2023-04-24T05:54:38.141Z,5.43
2023-04-24T05:57:11.596Z,5.75
2023-04-24T06:02:34.413Z,5.88
2023-04-24T06:05:02.050Z,5.85
2023-04-24T06:07:29.789Z,4.85
2023-04-24T06:09:57.930Z,6.00
2023-04-24T06:12:25.480Z,4.00
2023-04-24T06:14:53.067Z,4.40
2023-04-24T06:17:20.802Z,4.30
2023-04-24T06:19:49.724Z,5.53
2023-04-24T06:26:01.855Z,4.72
2023-04-24T06:32:19.665Z,5.40
2023-04-24T06:34:47.239Z,4.60
2023-04-24T06:37:17.175Z,4.38
2023-04-24T06:39:45.212Z,4.53
2023-04-24T06:42:36.596Z,4.57
2023-04-24T06:45:28.572Z,3.97
2023-04-24T06:48:22.881Z,5.07
2023-04-24T06:51:14.547Z,3.78
2023-04-24T06:53:57.097Z,4.07
2023-04-24T06:59:22.433Z,2.95
2023-04-24T07:01:50.066Z,3.00
2023-04-24T07:04:17.799Z,3.55
2023-04-24T07:06:49.783Z,3.70
2023-04-24T07:09:19.589Z,2.70
2023-04-24T07:11:47.334Z,2.85
2023-04-24T07:14:15.387Z,3.40
2023-04-24T07:16:43.669Z,2.67
2023-04-24T07:19:11.205Z,3.70
2023-04-24T07:21:38.672Z,3.25
2023-04-24T07:24:33.149Z,2.70
2023-04-24T07:27:37.706Z,2.90
2023-04-24T07:30:08.016Z,3.05
2023-04-24T07:32:36.063Z,3.80
2023-04-24T07:35:04.835Z,3.35
2023-04-24T07:37:35.177Z,3.30
2023-04-24T07:40:03.258Z,3.15
2023-04-24T07:45:27.252Z,2.25
2023-04-24T07:47:54.857Z,2.05
2023-04-24T07:50:22.562Z,2.40
2023-04-24T07:52:50.118Z,2.33
2023-04-24T07:55:17.690Z,2.35
2023-04-24T07:57:45.358Z,2.40
2023-04-24T08:00:13.330Z,2.03
2023-04-24T08:02:42.442Z,2.40
2023-04-24T08:05:10.718Z,2.45
2023-04-24T08:07:38.864Z,2.97
2023-04-24T08:10:07.118Z,2.55
2023-04-24T08:12:34.669Z,1.80
2023-04-24T08:15:02.199Z,1.88
2023-04-24T08:17:29.724Z,1.60
2023-04-24T08:20:02.500Z,1.70
2023-04-24T08:22:30.506Z,1.77
2023-04-24T08:25:01.879Z,1.90
2023-04-24T08:27:29.490Z,1.60
2023-04-24T08:29:57.175Z,1.38
2023-04-24T08:32:24.757Z,1.73
2023-04-24T08:34:53.701Z,1.77
2023-04-24T08:37:22.968Z,1.40
2023-04-24T08:39:51.267Z,1.48
2023-04-24T08:42:19.130Z,1.40
2023-04-24T08:44:46.915Z,1.77
2023-04-24T08:47:16.226Z,1.70
2023-04-24T08:49:44.940Z,1.75
2023-04-24T08:52:14.170Z,1.27
2023-04-24T08:54:44.640Z,1.63
2023-04-24T08:57:12.635Z,1.38
2023-04-24T08:59:40.235Z,1.77
2023-04-24T09:02:08.624Z,1.40
2023-04-24T09:04:40.168Z,1.70
2023-04-24T09:07:08.557Z,1.48
2023-04-24T09:09:36.757Z,1.52
2023-04-24T09:12:07.154Z,1.58
2023-04-24T09:14:37.220Z,1.23
2023-04-24T09:17:05.072Z,1.83
2023-04-24T09:19:32.749Z,1.40
2023-04-24T09:22:00.275Z,1.60
2023-04-24T09:24:27.763Z,1.80
2023-04-24T09:26:59.315Z,1.50
2023-04-24T09:29:29.263Z,1.55
2023-04-24T09:31:57.289Z,1.55
2023-04-24T09:34:25.513Z,1.60
2023-04-24T09:36:53.340Z,1.75
2023-04-24T09:39:21.757Z,1.48
2023-04-24T09:41:50.715Z,1.63
2023-04-24T09:44:18.784Z,1.55
2023-04-24T09:46:51.661Z,1.88
2023-04-24T09:49:25.847Z,1.92
2023-04-24T09:51:53.637Z,1.88
2023-04-24T09:54:22.230Z,1.63
2023-04-24T09:56:50.828Z,1.60
2023-04-24T09:59:19.329Z,2.05
2023-04-24T10:01:47.402Z,1.63
2023-04-24T10:10:09.702Z,1.50
2023-04-24T10:12:37.505Z,1.20
2023-04-24T10:15:06.685Z,1.50
2023-04-24T10:17:34.613Z,1.75
2023-04-24T10:20:03.998Z,1.30
2023-04-24T10:22:31.921Z,1.50
2023-04-24T10:25:00.377Z,1.60
2023-04-24T10:27:28.782Z,1.63
2023-04-24T10:29:57.191Z,1.98
2023-04-24T10:32:25.064Z,1.60
2023-04-24T10:34:52.751Z,1.45
2023-04-24T10:37:21.724Z,1.25
2023-04-24T10:39:49.988Z,1.55
2023-04-24T10:42:17.512Z,1.40
2023-04-24T10:44:45.099Z,1.77
2023-04-24T10:47:15.069Z,2.08
2023-04-24T10:49:42.638Z,2.33
2023-04-24T10:52:10.936Z,1.40
2023-04-24T10:54:44.578Z,1.70
2023-04-24T10:57:31.885Z,1.65
2023-04-24T11:00:15.451Z,1.50
2023-04-24T11:02:49.391Z,1.60
2023-04-24T11:05:18.412Z,2.33
2023-04-24T11:08:07.450Z,3.58
2023-04-24T11:10:39.965Z,2.40
2023-04-24T11:13:07.566Z,1.73
2023-04-24T11:15:35.118Z,1.58
2023-04-24T11:18:02.784Z,1.60
2023-04-24T11:20:30.861Z,1.73
2023-04-24T11:23:08.184Z,1.40
2023-04-24T11:25:37.548Z,2.20
2023-04-24T11:28:05.768Z,1.90
2023-04-24T11:30:34.608Z,1.40
2023-04-24T11:33:04.338Z,1.50
2023-04-24T11:35:31.891Z,1.35
2023-04-24T11:40:30.601Z,1.65
2023-04-24T11:43:02.307Z,1.48
2023-04-24T11:45:30.406Z,1.50
2023-04-24T11:47:58.062Z,3.30
2023-04-24T11:50:28.851Z,1.45
2023-04-24T11:52:57.606Z,1.63
2023-04-24T11:55:27.025Z,1.33
2023-04-24T11:57:57.383Z,1.52
2023-04-24T12:00:27.580Z,1.65
2023-04-24T12:03:06.812Z,1.45
2023-04-24T12:05:35.858Z,1.70
2023-04-24T12:08:03.641Z,1.65
2023-04-24T12:13:26.259Z,2.05
2023-04-24T12:15:55.294Z,2.08
2023-04-24T12:18:24.305Z,1.90
2023-04-24T12:26:40.152Z,2.72
2023-04-24T12:29:09.150Z,2.42
2023-04-24T12:31:38.280Z,2.28
2023-04-24T12:34:06.192Z,2.22
2023-04-24T12:36:33.774Z,2.33
2023-04-24T12:39:02.082Z,2.20
2023-04-24T12:41:54.416Z,2.42
2023-04-24T12:44:22.374Z,2.17
2023-04-24T12:46:51.314Z,2.13
2023-04-24T12:49:18.954Z,2.00
2023-04-24T12:51:46.451Z,2.10
2023-04-24T12:54:42.484Z,2.42
2023-04-24T12:57:34.135Z,1.83
2023-04-24T13:02:58.731Z,2.03
2023-04-24T13:05:26.417Z,2.15
2023-04-24T13:07:53.892Z,1.95
2023-04-24T13:10:21.782Z,2.13
2023-04-24T13:12:49.531Z,2.28
2023-04-24T13:15:17.098Z,1.90
2023-04-24T13:20:37.745Z,1.98
2023-04-24T13:23:05.441Z,2.55
2023-04-24T13:25:38.587Z,1.80
2023-04-24T13:28:06.102Z,3.35
2023-04-24T13:30:33.763Z,1.83
2023-04-24T13:33:05.805Z,3.60
2023-04-24T13:35:58.277Z,2.10
2023-04-24T13:44:09.813Z,1.90
2023-04-24T13:46:40.161Z,2.20
2023-04-24T13:49:07.708Z,1.77
2023-04-24T13:51:59.517Z,2.13
2023-04-24T13:54:28.528Z,1.88
2023-04-24T13:56:58.250Z,2.08
2023-04-24T14:02:17.760Z,2.08
2023-04-24T14:04:45.729Z,2.38
2023-04-24T14:07:13.369Z,2.25
2023-04-24T14:09:42.446Z,1.98
2023-04-24T14:12:10.166Z,2.28
2023-04-24T14:14:40.312Z,2.10
2023-04-24T14:17:07.938Z,2.30
2023-04-24T14:19:36.675Z,2.35
2023-04-24T14:22:07.025Z,2.25
2023-04-24T14:24:35.618Z,2.20
2023-04-24T14:27:04.811Z,2.08
2023-04-24T14:29:34.907Z,2.28
2023-04-24T14:32:05.468Z,2.40
2023-04-24T14:34:33.081Z,2.45
2023-04-24T14:37:00.921Z,1.95
2023-04-24T14:39:28.643Z,2.08
2023-04-24T14:41:57.785Z,2.67
2023-04-24T14:44:27.103Z,3.03
2023-04-24T14:47:19.334Z,2.38
2023-04-24T14:50:11.738Z,2.63
2023-04-24T14:53:06.540Z,2.10
2023-04-24T14:55:37.227Z,2.30
2023-04-24T14:58:07.314Z,2.60
2023-04-24T15:00:37.004Z,2.42
2023-04-24T15:03:04.896Z,2.35
2023-04-24T15:05:32.735Z,2.70
2023-04-24T15:08:00.612Z,2.50
2023-04-24T15:10:28.557Z,2.75
2023-04-24T15:15:49.626Z,2.67
2023-04-24T15:18:17.117Z,2.88
2023-04-24T15:20:47.873Z,2.97
2023-04-24T15:23:17.776Z,2.33
2023-04-24T15:25:48.140Z,3.72
2023-04-24T15:28:17.062Z,2.33
2023-04-24T15:30:44.846Z,2.60
2023-04-24T15:33:14.055Z,3.22
2023-04-24T15:35:42.338Z,2.50
2023-04-24T15:38:10.285Z,2.50
2023-04-24T15:40:47.030Z,3.35
2023-04-24T15:46:07.977Z,2.25
2023-04-24T15:48:37.227Z,2.80
2023-04-24T15:51:04.832Z,3.38
2023-04-24T15:59:19.066Z,2.80
2023-04-24T16:01:47.033Z,3.28
2023-04-24T16:04:16.452Z,3.63
2023-04-24T16:06:44.265Z,2.20
2023-04-24T16:09:13.438Z,3.42
2023-04-24T16:11:41.489Z,2.83
2023-04-24T16:14:11.857Z,3.70
2023-04-24T16:16:39.471Z,4.10
2023-04-24T16:19:18.687Z,3.17
2023-04-24T16:21:50.675Z,2.35
2023-04-24T16:24:20.960Z,2.65
2023-04-24T16:27:05.933Z,2.45
2023-04-24T16:29:33.792Z,2.55
2023-04-24T16:34:59.009Z,3.10
2023-04-24T16:37:29.693Z,2.42
2023-04-24T16:40:04.343Z,2.70
2023-04-24T16:42:31.846Z,2.90
2023-04-24T16:45:05.916Z,2.72
2023-04-24T16:50:24.700Z,2.58
2023-04-24T16:52:58.460Z,2.85
2023-04-24T16:55:32.060Z,3.17
2023-04-24T16:58:01.812Z,6.28
2023-04-24T17:00:30.925Z,3.60
2023-04-24T17:03:23.993Z,2.75
2023-04-24T17:05:56.040Z,2.50
2023-04-24T17:08:25.458Z,2.58
2023-04-24T17:10:56.822Z,2.53
2023-04-24T17:31:04.224Z,2.60
2023-04-24T17:33:32.318Z,2.42
2023-04-24T17:36:01.674Z,2.65
2023-04-24T17:38:29.700Z,19.35
2023-04-24T17:41:00.171Z,3.97
2023-04-24T17:49:16.794Z,2.78
2023-04-24T17:51:44.340Z,2.60
2023-04-24T17:54:12.245Z,2.83
2023-04-24T17:59:59.362Z,3.22
2023-04-24T18:02:27.229Z,4.25
2023-04-24T18:04:55.534Z,2.50
2023-04-24T18:07:23.458Z,3.15
2023-04-24T18:09:51.594Z,3.15
2023-04-24T18:12:22.651Z,3.17
2023-04-24T18:14:57.312Z,2.85
2023-04-24T18:17:46.446Z,3.47
2023-04-24T18:26:25.630Z,2.72
2023-04-24T18:29:07.529Z,2.55
2023-04-24T18:31:35.453Z,3.38
2023-04-24T18:34:04.423Z,2.88
2023-04-24T18:36:32.702Z,2.75
2023-04-24T18:39:01.780Z,3.15
2023-04-24T18:41:32.152Z,3.10
2023-04-24T18:44:00.104Z,3.35
2023-04-24T18:46:31.265Z,2.60
2023-04-24T18:49:00.973Z,2.95
2023-04-24T18:51:40.388Z,3.00
2023-04-24T18:54:16.619Z,3.20
2023-04-24T18:56:46.562Z,3.00
2023-04-24T18:59:16.266Z,3.45
2023-04-24T19:01:47.356Z,4.00
2023-04-24T19:04:38.227Z,3.83
2023-04-24T19:07:12.192Z,3.58
2023-04-24T19:09:42.173Z,4.10
2023-04-24T19:12:11.284Z,3.80
2023-04-24T19:14:41.224Z,4.38
2023-04-24T19:20:05.222Z,4.82
2023-04-24T19:22:38.572Z,4.03
2023-04-24T19:25:06.905Z,4.53
2023-04-24T19:27:34.728Z,4.28
2023-04-24T19:30:02.323Z,5.07
2023-04-24T19:32:41.256Z,3.30
2023-04-24T19:35:09.190Z,4.30
2023-04-24T19:37:41.292Z,4.55
2023-04-24T19:40:09.446Z,4.78
2023-04-24T19:42:43.757Z,4.63
2023-04-24T19:48:12.123Z,4.85
2023-04-24T19:50:44.457Z,4.90
2023-04-24T19:53:14.642Z,4.00
2023-04-24T19:55:42.135Z,3.63
2023-04-24T19:58:09.630Z,3.67
2023-04-24T20:00:41.023Z,3.50
2023-04-24T20:03:21.613Z,3.58
2023-04-24T20:05:59.215Z,4.40
2023-04-24T20:08:30.500Z,4.30
2023-04-24T20:10:58.643Z,5.88
2023-04-24T20:13:28.757Z,4.78
2023-04-24T20:15:57.904Z,4.93
2023-04-24T20:18:25.550Z,5.32
2023-04-24T20:20:57.144Z,5.57
2023-04-24T20:23:24.732Z,5.45
2023-04-24T20:25:58.068Z,4.25
2023-04-24T20:28:32.077Z,6.15
2023-04-24T20:31:00.161Z,4.82
2023-04-24T20:33:30.498Z,4.80
2023-04-24T20:35:57.962Z,5.00
2023-04-24T20:38:29.260Z,4.30
2023-04-24T20:40:58.604Z,5.47
2023-04-24T20:43:28.870Z,4.10
2023-04-24T20:45:58.097Z,4.72
2023-04-24T20:48:26.009Z,3.95
2023-04-24T20:50:54.488Z,5.18
2023-04-24T20:53:22.084Z,4.20
2023-04-24T20:55:51.034Z,4.28
2023-04-24T20:58:20.976Z,4.32
2023-04-24T21:00:52.270Z,4.65
2023-04-24T21:03:20.144Z,4.47
2023-04-24T21:05:47.833Z,4.20
2023-04-24T21:08:15.440Z,4.97
2023-04-24T21:10:43.215Z,5.05
2023-04-24T21:13:10.857Z,4.40
2023-04-24T21:15:39.981Z,4.55
2023-04-24T21:18:07.986Z,4.78
2023-04-24T21:20:35.582Z,3.95
2023-04-24T21:23:06.416Z,4.57
2023-04-24T21:25:35.010Z,3.72
2023-04-24T21:28:02.551Z,4.45
2023-04-24T21:30:30.580Z,3.92
2023-04-24T21:32:59.968Z,4.82
2023-04-24T21:35:27.546Z,4.50
2023-04-24T21:37:55.103Z,4.85
2023-04-24T21:40:22.616Z,4.20
2023-04-24T21:42:51.824Z,5.32
2023-04-24T21:45:20.204Z,4.30
2023-04-24T21:47:47.738Z,4.28
2023-04-24T21:50:21.808Z,4.20
2023-04-24T21:58:33.331Z,4.78
2023-04-24T22:01:00.997Z,4.65
2023-04-24T22:03:29.755Z,4.35
2023-04-24T22:05:58.963Z,4.45
2023-04-24T22:08:26.475Z,4.70
2023-04-24T22:10:54.657Z,4.07
2023-04-24T22:13:22.257Z,4.38
2023-04-24T22:15:51.660Z,4.82
2023-04-24T22:18:20.634Z,4.93
2023-04-24T22:20:48.758Z,4.53
2023-04-24T22:23:17.620Z,4.82
2023-04-24T22:25:45.282Z,4.65
2023-04-24T22:28:13.004Z,3.88
2023-04-24T22:30:40.541Z,4.15
2023-04-24T22:33:08.470Z,4.90
2023-04-24T22:35:37.485Z,4.32
2023-04-24T22:38:04.985Z,4.65
2023-04-24T22:40:35.549Z,3.65
2023-04-24T22:43:03.727Z,4.28
2023-04-24T22:45:31.307Z,4.68
2023-04-24T22:47:58.899Z,5.32
2023-04-24T22:50:35.540Z,6.25
2023-04-24T22:53:03.313Z,5.07
2023-04-24T22:55:31.458Z,4.40
2023-04-24T23:00:52.646Z,5.22
2023-04-24T23:03:20.447Z,4.90
2023-04-24T23:05:48.107Z,5.00
2023-04-24T23:08:16.120Z,4.90
2023-04-24T23:10:43.655Z,4.07
2023-04-24T23:13:12.511Z,4.65
2023-04-24T23:15:44.912Z,4.53
2023-04-24T23:18:12.640Z,5.00
2023-04-24T23:20:40.146Z,6.55
2023-04-24T23:23:08.037Z,5.15
2023-04-24T23:25:35.585Z,5.57
2023-04-24T23:28:03.121Z,5.57
2023-04-24T23:33:23.874Z,4.05
2023-04-24T23:35:55.491Z,4.30
2023-04-24T23:38:23.017Z,5.13
2023-04-24T23:40:52.183Z,5.22
2023-04-24T23:43:22.943Z,4.50
2023-04-24T23:45:52.596Z,5.80
2023-04-24T23:48:20.195Z,5.15
2023-04-24T23:50:47.804Z,6.07
2023-04-24T23:56:08.221Z,5.93
2023-04-24T23:59:01.025Z,6.93
